createdAt,value
2023-03-06T00:02:01.553Z,9.15
2023-03-06T00:04:30.955Z,8.90
2023-03-06T00:06:57.757Z,7.60
2023-03-06T00:09:24.453Z,9.18
2023-03-06T00:11:51.024Z,8.60
2023-03-06T00:14:17.618Z,8.68
2023-03-06T00:16:44.237Z,8.48
2023-03-06T00:19:12.805Z,8.18
2023-03-06T00:21:45.390Z,8.30
2023-03-06T00:24:16.101Z,7.75
2023-03-06T00:26:43.397Z,8.38
2023-03-06T00:29:10.075Z,8.88
2023-03-06T00:31:37.105Z,9.13
2023-03-06T00:34:06.656Z,9.18
2023-03-06T00:36:36.006Z,10.32
2023-03-06T00:39:02.639Z,8.38
2023-03-06T00:41:29.314Z,8.77
2023-03-06T00:44:01.024Z,8.52
2023-03-06T00:46:27.656Z,10.52
2023-03-06T00:48:54.248Z,8.32
2023-03-06T00:51:23.331Z,8.27
2023-03-06T00:53:52.516Z,8.60
2023-03-06T00:56:20.066Z,8.98
2023-03-06T00:58:46.843Z,8.13
2023-03-06T01:01:13.840Z,8.43
2023-03-06T01:03:42.432Z,8.38
2023-03-06T01:06:09.205Z,8.38
2023-03-06T01:08:35.938Z,8.85
2023-03-06T01:11:02.638Z,8.45
2023-03-06T01:13:29.389Z,9.90
2023-03-06T01:16:07.432Z,9.50
2023-03-06T01:18:34.335Z,8.48
2023-03-06T01:21:00.997Z,9.65
2023-03-06T01:23:27.704Z,8.57
2023-03-06T01:25:56.987Z,8.55
2023-03-06T01:28:24.055Z,8.55
2023-03-06T01:30:53.461Z,9.20
2023-03-06T01:33:20.216Z,8.27
2023-03-06T01:35:46.967Z,8.10
2023-03-06T01:38:14.378Z,8.23
2023-03-06T01:40:41.070Z,8.70
2023-03-06T01:43:26.670Z,8.85
2023-03-06T01:46:12.065Z,9.98
2023-03-06T01:48:39.702Z,8.95
2023-03-06T01:51:06.505Z,8.73
2023-03-06T01:53:33.424Z,8.48
2023-03-06T01:56:00.145Z,8.75
2023-03-06T01:58:26.945Z,7.93
2023-03-06T02:00:53.640Z,8.32
2023-03-06T02:03:26.762Z,7.85
2023-03-06T02:05:57.396Z,7.75
2023-03-06T02:08:24.992Z,8.30
2023-03-06T02:11:00.922Z,8.52
2023-03-06T02:13:27.650Z,11.88
2023-03-06T02:15:54.420Z,8.18
2023-03-06T02:18:21.123Z,7.68
2023-03-06T02:20:54.220Z,8.50
2023-03-06T02:23:32.221Z,8.18
2023-03-06T02:26:00.998Z,7.70
2023-03-06T02:28:27.881Z,9.18
2023-03-06T02:30:56.468Z,7.63
2023-03-06T02:33:27.366Z,8.13
2023-03-06T02:36:02.911Z,8.63
2023-03-06T02:38:42.262Z,8.35
2023-03-06T02:41:10.726Z,7.72
2023-03-06T02:43:43.490Z,8.48
2023-03-06T02:46:12.735Z,7.43
2023-03-06T02:48:39.515Z,8.25
2023-03-06T02:51:06.779Z,8.57
2023-03-06T02:53:36.451Z,7.47
2023-03-06T02:56:03.153Z,9.35
2023-03-06T02:58:29.880Z,8.25
2023-03-06T03:00:56.501Z,8.35
2023-03-06T03:03:23.292Z,8.38
2023-03-06T03:05:50.113Z,7.53
2023-03-06T03:08:16.883Z,7.97
2023-03-06T03:10:43.670Z,8.02
2023-03-06T03:13:12.649Z,8.88
2023-03-06T03:15:39.354Z,7.40
2023-03-06T03:18:06.020Z,6.70
2023-03-06T03:20:33.060Z,6.97
2023-03-06T03:23:02.932Z,6.50
2023-03-06T03:25:32.363Z,7.72
2023-03-06T03:28:04.553Z,6.97
2023-03-06T03:30:33.827Z,6.60
2023-03-06T03:33:03.587Z,8.93
2023-03-06T03:35:33.105Z,5.78
2023-03-06T03:37:59.987Z,5.78
2023-03-06T03:40:28.959Z,6.60
2023-03-06T03:42:55.528Z,5.60
2023-03-06T03:45:27.741Z,5.90
2023-03-06T03:47:57.047Z,8.52
2023-03-06T03:50:25.468Z,6.63
2023-03-06T03:52:54.446Z,6.75
2023-03-06T03:55:21.210Z,7.53
2023-03-06T03:57:47.907Z,7.10
2023-03-06T04:00:18.410Z,6.65
2023-03-06T04:02:45.271Z,7.20
2023-03-06T04:05:14.916Z,8.57
2023-03-06T04:07:42.731Z,7.20
2023-03-06T04:10:10.792Z,7.93
2023-03-06T04:12:37.833Z,7.70
2023-03-06T04:15:10.351Z,7.30
2023-03-06T04:17:42.172Z,7.05
2023-03-06T04:20:14.516Z,8.30
2023-03-06T04:22:44.338Z,8.05
2023-03-06T04:25:15.524Z,8.73
2023-03-06T04:27:42.148Z,6.60
2023-03-06T04:30:09.397Z,6.68
2023-03-06T04:32:36.126Z,6.60
2023-03-06T04:35:05.458Z,6.57
2023-03-06T04:37:32.192Z,6.30
2023-03-06T04:39:58.872Z,7.22
2023-03-06T04:42:25.535Z,6.60
2023-03-06T04:44:52.284Z,6.03
2023-03-06T04:47:19.419Z,6.75
2023-03-06T04:49:46.537Z,7.10
2023-03-06T04:52:16.064Z,6.47
2023-03-06T04:54:46.855Z,6.93
2023-03-06T04:57:14.281Z,6.80
2023-03-06T04:59:40.899Z,7.65
2023-03-06T05:02:07.740Z,8.18
2023-03-06T05:04:38.699Z,8.55
2023-03-06T05:07:05.456Z,8.38
2023-03-06T05:09:38.252Z,9.30
2023-03-06T05:12:08.858Z,6.67
2023-03-06T05:14:38.184Z,6.22
2023-03-06T05:17:04.850Z,6.47
2023-03-06T05:19:31.398Z,7.38
2023-03-06T05:21:58.091Z,8.05
2023-03-06T05:24:24.774Z,7.63
2023-03-06T05:26:51.408Z,6.90
2023-03-06T05:29:21.326Z,12.05
2023-03-06T05:31:47.995Z,10.50
2023-03-06T05:34:16.120Z,8.70
2023-03-06T05:36:43.327Z,8.23
2023-03-06T05:39:10.069Z,9.68
2023-03-06T05:41:36.671Z,8.65
2023-03-06T05:44:03.333Z,8.60
2023-03-06T05:46:30.008Z,9.98
2023-03-06T05:48:57.918Z,10.27
2023-03-06T05:51:27.840Z,8.32
2023-03-06T05:53:54.448Z,8.65
2023-03-06T05:56:23.438Z,8.77
2023-03-06T05:58:52.563Z,9.00
2023-03-06T06:01:20.464Z,9.27
2023-03-06T06:03:47.669Z,10.52
2023-03-06T06:06:15.726Z,9.00
2023-03-06T06:08:45.042Z,8.68
2023-03-06T06:11:13.289Z,13.23
2023-03-06T06:13:40.666Z,8.43
2023-03-06T06:16:19.477Z,8.77
2023-03-06T06:18:46.510Z,9.10
2023-03-06T06:21:15.942Z,7.85
2023-03-06T06:23:42.647Z,9.27
2023-03-06T06:26:11.691Z,8.57
2023-03-06T06:28:38.345Z,9.15
2023-03-06T06:31:12.346Z,8.75
2023-03-06T06:33:41.805Z,14.50
2023-03-06T06:36:21.693Z,12.18
2023-03-06T06:38:49.665Z,10.98
2023-03-06T06:44:08.444Z,11.93
2023-03-06T06:47:20.913Z,9.50
2023-03-06T06:49:25.904Z,9.38
2023-03-06T06:51:52.622Z,13.15
2023-03-06T06:54:25.173Z,11.27
2023-03-06T06:56:52.177Z,9.63
2023-03-06T06:59:22.334Z,10.00
2023-03-06T07:01:51.636Z,7.65
2023-03-06T07:04:21.322Z,8.30
2023-03-06T07:06:50.568Z,6.60
2023-03-06T07:09:20.188Z,12.25
2023-03-06T07:11:46.823Z,7.15
2023-03-06T07:14:13.837Z,8.13
2023-03-06T07:16:42.237Z,9.68
2023-03-06T07:19:10.955Z,8.60
2023-03-06T07:21:37.671Z,6.97
2023-03-06T07:24:05.982Z,7.70
2023-03-06T07:26:34.649Z,8.20
2023-03-06T07:29:03.830Z,7.68
2023-03-06T07:31:32.320Z,9.23
2023-03-06T07:33:59.056Z,8.07
2023-03-06T07:36:28.083Z,8.50
2023-03-06T07:38:57.598Z,8.60
2023-03-06T07:41:24.259Z,9.70
2023-03-06T07:43:53.346Z,8.32
2023-03-06T07:46:20.036Z,9.85
2023-03-06T07:48:46.658Z,5.68
2023-03-06T07:51:19.085Z,9.45
2023-03-06T07:53:46.668Z,6.68
2023-03-06T07:56:13.725Z,9.57
2023-03-06T07:58:43.382Z,10.05
2023-03-06T08:01:18.089Z,9.45
2023-03-06T08:03:44.831Z,9.85
2023-03-06T08:06:32.334Z,7.35
2023-03-06T08:08:59.807Z,7.70
2023-03-06T08:11:32.412Z,6.40
2023-03-06T08:13:59.548Z,6.90
2023-03-06T08:16:29.647Z,7.68
2023-03-06T08:18:59.707Z,7.47
2023-03-06T08:21:29.383Z,7.18
2023-03-06T08:23:56.314Z,8.10
2023-03-06T08:26:30.980Z,6.43
2023-03-06T08:28:59.823Z,6.53
2023-03-06T08:31:29.532Z,5.72
2023-03-06T08:33:59.896Z,8.60
2023-03-06T08:36:35.252Z,7.50
2023-03-06T08:39:05.183Z,6.60
2023-03-06T08:41:33.475Z,5.68
2023-03-06T08:44:00.337Z,6.93
2023-03-06T08:46:28.870Z,6.88
2023-03-06T12:31:52.421Z,6.40
2023-03-06T18:13:53.001Z,21.73
2023-03-06T18:16:26.268Z,25.13
2023-03-06T18:18:58.146Z,20.88
2023-03-06T18:21:25.174Z,21.67
2023-03-06T18:23:55.119Z,25.23
2023-03-06T18:26:24.569Z,21.92
2023-03-06T18:29:00.650Z,23.85
2023-03-06T18:31:32.336Z,26.58
2023-03-06T18:34:08.996Z,25.75
2023-03-06T18:36:36.998Z,25.02
2023-03-06T18:39:10.173Z,24.45
2023-03-06T18:41:37.317Z,26.05
2023-03-06T18:44:04.720Z,27.80
2023-03-06T18:46:36.771Z,28.98
2023-03-06T18:49:06.500Z,24.27
2023-03-06T18:51:33.916Z,26.40
2023-03-06T18:54:02.084Z,27.80
2023-03-06T18:56:31.221Z,28.23
2023-03-06T18:59:02.744Z,24.02
2023-03-06T19:01:36.479Z,24.77
2023-03-06T19:04:04.522Z,24.38
2023-03-06T19:06:34.497Z,21.85
2023-03-06T19:09:02.437Z,24.40
2023-03-06T19:11:30.071Z,24.67
2023-03-06T19:14:00.201Z,26.55
2023-03-06T19:16:33.210Z,27.55
2023-03-06T19:18:59.975Z,26.40
2023-03-06T19:21:29.861Z,26.55
2023-03-06T19:23:57.417Z,22.83
2023-03-06T19:26:27.164Z,22.85
2023-03-06T19:29:00.929Z,23.80
2023-03-06T19:31:32.520Z,21.45
2023-03-06T19:34:02.349Z,22.52
2023-03-06T19:36:33.697Z,20.73
2023-03-06T19:39:05.386Z,19.67
2023-03-06T19:41:36.415Z,19.80
2023-03-06T19:44:05.023Z,20.10
2023-03-06T19:46:32.241Z,20.67
2023-03-06T19:49:05.278Z,19.17
2023-03-06T19:51:37.204Z,21.55
2023-03-06T19:54:04.972Z,24.98
2023-03-06T19:56:35.982Z,23.92
2023-03-06T19:59:02.700Z,22.73
2023-03-06T20:01:29.398Z,23.70
2023-03-06T20:03:59.163Z,25.10
2023-03-06T20:06:29.921Z,23.88
2023-03-06T20:09:00.348Z,25.15
2023-03-06T20:11:31.983Z,23.60
2023-03-06T20:14:06.600Z,27.98
2023-03-06T20:16:37.329Z,29.27
2023-03-06T20:19:10.696Z,25.17
2023-03-06T20:21:40.639Z,24.60
2023-03-06T20:24:11.289Z,29.88
2023-03-06T20:26:40.172Z,26.02
2023-03-06T20:29:06.863Z,23.40
2023-03-06T20:31:37.757Z,20.77
2023-03-06T20:34:05.038Z,21.70
2023-03-06T20:36:37.226Z,24.23
2023-03-06T20:39:06.738Z,30.45
2023-03-06T20:41:36.320Z,34.28
2023-03-06T20:44:04.531Z,29.50
2023-03-06T20:46:31.714Z,21.13
2023-03-06T20:49:00.285Z,18.63
2023-03-06T20:51:31.518Z,19.65
2023-03-06T20:54:01.032Z,22.17
2023-03-06T20:56:30.627Z,20.45
2023-03-06T20:58:57.867Z,20.67
2023-03-06T21:01:33.801Z,17.67
2023-03-06T21:04:07.119Z,25.55
2023-03-06T21:06:37.283Z,20.27
2023-03-06T21:09:07.460Z,22.08
2023-03-06T21:11:36.756Z,23.08
2023-03-06T21:14:03.421Z,22.13
2023-03-06T21:16:30.507Z,21.00
2023-03-06T21:19:00.393Z,23.02
2023-03-06T21:21:30.783Z,24.05
2023-03-06T21:23:59.007Z,22.05
2023-03-06T21:26:28.687Z,23.05
2023-03-06T21:29:03.007Z,22.88
2023-03-06T21:31:36.859Z,22.52
2023-03-06T21:34:05.243Z,25.15
2023-03-06T21:36:32.181Z,28.88
2023-03-06T21:38:58.891Z,23.08
2023-03-06T21:41:30.684Z,23.13
2023-03-06T21:43:59.664Z,22.10
2023-03-06T21:46:27.837Z,16.85
2023-03-06T21:48:54.632Z,17.13
2023-03-06T21:51:23.771Z,21.10
2023-03-06T21:53:53.500Z,23.63
2023-03-06T21:56:29.904Z,21.10
2023-03-06T21:58:59.769Z,19.77
2023-03-06T22:01:28.750Z,32.78
2023-03-06T22:03:55.807Z,24.80
2023-03-06T22:06:25.495Z,23.40
2023-03-06T22:08:52.939Z,26.33
2023-03-06T22:11:23.280Z,25.00
2023-03-06T22:13:53.592Z,20.83
2023-03-06T22:16:23.854Z,21.33
2023-03-06T22:18:52.057Z,23.23
2023-03-06T22:21:21.897Z,22.95
2023-03-06T22:23:52.238Z,22.88
2023-03-06T22:26:19.696Z,21.35
2023-03-06T22:28:46.931Z,23.25
2023-03-06T22:31:18.212Z,24.23
2023-03-06T22:33:47.604Z,25.65
2023-03-06T22:36:15.817Z,25.33
2023-03-06T22:38:45.174Z,25.50
2023-03-06T22:41:16.523Z,25.55
2023-03-06T22:43:43.773Z,23.35
2023-03-06T22:46:15.357Z,24.45
2023-03-06T22:48:42.997Z,21.02
2023-03-06T22:51:15.552Z,24.10
2023-03-06T22:53:43.154Z,24.95
2023-03-06T22:56:12.317Z,25.50
2023-03-06T22:58:41.522Z,19.85
2023-03-06T23:01:10.822Z,24.83
2023-03-06T23:03:38.751Z,27.73
2023-03-06T23:06:14.530Z,25.50
2023-03-06T23:08:43.156Z,21.00
2023-03-06T23:11:12.553Z,22.15
2023-03-06T23:13:39.629Z,21.52
2023-03-06T23:16:07.605Z,21.30
2023-03-06T23:18:39.650Z,21.65
2023-03-06T23:21:09.116Z,22.52
2023-03-06T23:23:37.012Z,19.58
2023-03-06T23:26:10.537Z,21.40
2023-03-06T23:28:40.386Z,21.43
2023-03-06T23:31:08.255Z,20.92
2023-03-06T23:33:35.274Z,19.83
2023-03-06T23:36:08.632Z,19.77
2023-03-06T23:38:38.382Z,20.70
2023-03-06T23:41:11.633Z,23.02
2023-03-06T23:43:38.578Z,20.52
2023-03-06T23:46:07.095Z,20.60
2023-03-06T23:48:37.281Z,19.02
2023-03-06T23:51:11.865Z,18.23
2023-03-06T23:53:38.532Z,13.57
2023-03-06T23:56:11.166Z,15.85
2023-03-06T23:58:42.186Z,18.38
